Time;durP1;ratioP1;P1;durP2;ratioP2;P2;SDS_P1;SDS_P2;PMS_P1;PMS_P2;Temp;Humidity;BMP_temperature;BMP_pressure;BME280_temperature;BME280_humidity;BME280_pressure;Samples;Min_cycle;Max_cycle;Signal;HPM_P1;HPM_P2
2023/04/16 00:00:37;;;;;;;;;5.00;5.00;;;;;11.60;48.39;102232.25;2043840;28;2738799;-73
2023/04/16 00:01:50;;;;;;;;;7.50;7.50;;;;;11.59;48.28;102230.50;2031798;27;2737770;-74
2023/04/16 00:03:04;;;;;;;;;5.67;5.67;;;;;11.57;48.05;102230.53;2059927;27;2740919;-74
2023/04/16 00:04:17;;;;;;;;;6.83;6.83;;;;;11.56;48.42;102226.16;2032988;27;2741932;-74
2023/04/16 00:05:27;;;;;;;;;11.00;8.00;;;;;11.55;48.73;102236.72;2030801;27;2762844;-74
2023/04/16 00:06:38;;;;;;;;;11.00;10.00;;;;;11.54;48.60;102235.84;2048471;27;3513787;-73
2023/04/16 00:07:50;;;;;;;;;10.33;6.67;;;;;11.54;48.53;102237.59;2046303;27;2756634;-73
2023/04/16 00:09:03;;;;;;;;;10.17;8.00;;;;;11.54;48.55;102237.59;2054071;27;2727903;-73
2023/04/16 00:10:17;;;;;;;;;8.50;7.67;;;;;11.52;48.42;102242.00;2037454;27;2744026;-74
2023/04/16 00:11:27;;;;;;;;;9.00;8.00;;;;;11.50;48.08;102243.78;2024622;28;3468334;-73
2023/04/16 00:12:38;;;;;;;;;8.33;7.00;;;;;11.47;48.66;102237.69;2050160;27;2742977;-74
2023/04/16 00:13:49;;;;;;;;;9.00;8.00;;;;;11.45;48.51;102233.31;2008105;27;3462741;-74
2023/04/16 00:15:00;;;;;;;;;8.67;8.67;;;;;11.42;48.26;102239.50;2049458;28;2746137;-74
2023/04/16 00:16:10;;;;;;;;;10.33;8.33;;;;;11.41;48.57;102243.00;2003561;27;3483624;-74
2023/04/16 00:17:21;;;;;;;;;7.00;7.00;;;;;11.40;48.61;102240.41;2059809;27;2746625;-74
2023/04/16 00:18:35;;;;;;;;;8.50;6.67;;;;;11.37;48.68;102241.31;2024851;28;2751326;-74
2023/04/16 00:19:45;;;;;;;;;9.00;9.00;;;;;11.37;48.63;102241.31;2026377;27;2746182;-74
2023/04/16 00:20:56;;;;;;;;;7.33;7.33;;;;;11.35;48.94;102237.84;2051298;28;2727384;-74
2023/04/16 00:22:07;;;;;;;;;9.33;9.00;;;;;11.35;48.88;102241.34;2026699;27;3470043;-74
2023/04/16 00:23:18;;;;;;;;;9.67;8.67;;;;;11.34;48.89;102241.34;2047815;27;3475273;-74
2023/04/16 00:24:29;;;;;;;;;9.33;8.67;;;;;11.33;49.07;102242.25;2026880;28;2758601;-74
2023/04/16 00:25:40;;;;;;;;;9.67;8.00;;;;;11.32;48.87;102243.13;2056542;27;2758614;-74
2023/04/16 00:26:50;;;;;;;;;10.00;7.67;;;;;11.30;48.93;102239.66;2033304;27;3475259;-74
2023/04/16 00:28:01;;;;;;;;;8.00;8.00;;;;;11.28;48.91;102242.31;2059844;27;2726321;-74
2023/04/16 00:29:15;;;;;;;;;9.00;7.33;;;;;11.27;49.13;102240.56;2037010;27;2742993;-74
2023/04/16 00:30:25;;;;;;;;;12.00;9.00;;;;;11.27;49.32;102247.56;2033211;27;3485655;-74
2023/04/16 00:31:36;;;;;;;;;7.00;7.00;;;;;11.27;49.18;102244.94;2060239;27;2738823;-74
2023/04/16 00:32:49;;;;;;;;;7.83;7.83;;;;;11.25;48.73;102248.47;2037801;27;2739844;-74
2023/04/16 00:34:00;;;;;;;;;10.00;9.00;;;;;11.23;49.03;102247.63;2029939;27;2752761;-74
2023/04/16 00:35:11;;;;;;;;;8.33;7.67;;;;;11.21;49.18;102246.75;2042750;28;2737875;-74
2023/04/16 00:36:23;;;;;;;;;7.33;5.67;;;;;11.20;49.03;102257.31;2041865;27;2735699;-74
2023/04/16 00:37:33;;;;;;;;;10.00;9.00;;;;;11.19;49.54;102252.91;2025157;28;2767108;-74
2023/04/16 00:38:44;;;;;;;;;8.00;8.00;;;;;11.16;49.05;102251.19;2050478;27;2746122;-74
2023/04/16 00:39:58;;;;;;;;;9.67;7.67;;;;;11.14;49.58;102245.94;2033135;27;2754482;-74
2023/04/16 00:41:08;;;;;;;;;7.33;7.00;;;;;11.15;49.22;102254.72;2009407;27;2732634;-74
2023/04/16 00:42:19;;;;;;;;;7.67;7.67;;;;;11.12;49.45;102246.84;2042166;28;3459618;-74
2023/04/16 00:43:30;;;;;;;;;12.67;9.67;;;;;11.11;49.42;102250.41;2035320;27;3501328;-74
2023/04/16 00:44:43;;;;;;;;;7.20;7.20;;;;;11.07;49.58;102249.53;2056710;27;2741944;-74
2023/04/16 00:45:56;;;;;;;;;5.83;5.33;;;;;11.06;49.77;102245.19;2058494;27;2750364;-74
2023/04/16 00:47:10;;;;;;;;;8.83;8.33;;;;;11.06;49.85;102242.56;2061036;27;2748188;-74
2023/04/16 00:48:21;;;;;;;;;10.67;9.00;;;;;11.07;49.83;102243.41;2004141;27;3481486;-74
2023/04/16 00:49:32;;;;;;;;;9.33;9.00;;;;;11.07;49.77;102241.66;2044944;27;3462751;-74
2023/04/16 00:50:42;;;;;;;;;10.67;8.00;;;;;11.07;50.07;102246.91;2028951;28;3485688;-74
2023/04/16 00:51:54;;;;;;;;;9.67;8.67;;;;;11.06;50.02;102246.94;2030726;28;2758657;-74
2023/04/16 00:53:07;;;;;;;;;9.67;7.50;;;;;11.05;49.83;102245.19;2052353;28;2749227;-74
2023/04/16 00:54:18;;;;;;;;;8.67;8.67;;;;;11.05;49.95;102247.81;2006425;27;3464852;-74
2023/04/16 00:55:30;;;;;;;;;9.25;9.25;;;;;11.02;49.82;102246.09;2050903;28;2742981;-74
2023/04/16 00:56:41;;;;;;;;;8.33;7.00;;;;;11.01;49.63;102244.34;1997740;27;2739877;-74
2023/04/16 00:57:54;;;;;;;;;9.33;7.67;;;;;11.00;50.34;102242.59;2059230;27;2745073;-74
2023/04/16 00:59:08;;;;;;;;;8.83;8.83;;;;;10.99;50.02;102246.09;2033825;27;2752354;-74
2023/04/16 01:00:19;;;;;;;;;10.33;9.00;;;;;10.97;49.81;102248.78;2010043;27;3485685;-74
2023/04/16 01:01:32;;;;;;;;;7.50;7.50;;;;;10.95;50.02;102245.28;2051614;28;2732950;-74
2023/04/16 01:02:43;;;;;;;;;8.67;8.67;;;;;10.93;50.48;102239.16;2026193;27;3450276;-74
2023/04/16 01:03:54;;;;;;;;;8.33;8.00;;;;;10.93;50.34;102244.44;2055936;27;2746161;-74
2023/04/16 01:05:08;;;;;;;;;10.00;9.50;;;;;10.91;50.27;102240.94;2033228;27;2769044;-74
2023/04/16 01:06:18;;;;;;;;;11.67;7.67;;;;;10.89;49.74;102230.44;2003182;28;3479828;-74
2023/04/16 01:07:30;;;;;;;;;7.67;7.67;;;;;10.88;50.54;102238.34;2044010;28;2740894;-74
2023/04/16 01:08:40;;;;;;;;;9.00;8.33;;;;;10.87;50.46;102239.22;2001635;27;2752337;-74
2023/04/16 01:09:52;;;;;;;;;10.50;7.50;;;;;10.86;50.17;102242.75;2060092;27;2746145;-74
2023/04/16 01:11:03;;;;;;;;;9.33;7.00;;;;;10.84;50.32;102241.91;2031558;27;2755492;-74
2023/04/16 01:12:13;;;;;;;;;9.67;8.67;;;;;10.83;50.59;102241.03;2038954;27;2751337;-74
2023/04/16 01:13:24;;;;;;;;;10.00;8.67;;;;;10.82;50.34;102254.16;2043114;27;3481552;-74
2023/04/16 01:14:36;;;;;;;;;8.67;8.67;;;;;10.80;50.72;102247.19;2044965;27;3468048;-74
2023/04/16 01:15:49;;;;;;;;;7.67;7.17;;;;;10.78;50.65;102242.81;2053713;27;2735674;-74
2023/04/16 01:17:03;;;;;;;;;8.33;8.33;;;;;10.75;50.69;102248.97;2060791;27;2748255;-74
2023/04/16 01:18:19;;;;;;;;;11.00;9.33;;;;;10.75;50.71;102237.59;2030694;27;2761811;-74
2023/04/16 01:19:35;;;;;;;;;8.00;6.00;;;;;10.75;50.66;102242.84;2044778;28;2728380;-74
2023/04/16 01:20:47;;;;;;;;;9.33;9.33;;;;;10.74;50.83;102252.47;2019443;28;2763862;-74
2023/04/16 01:21:58;;;;;;;;;11.33;9.00;;;;;10.73;50.73;102236.72;2028094;27;3486151;-74
2023/04/16 01:23:08;;;;;;;;;11.67;9.00;;;;;10.72;50.98;102246.38;2024944;28;2754427;-74
2023/04/16 01:24:19;;;;;;;;;12.33;9.00;;;;;10.69;51.05;102244.63;2047192;27;2750276;-74
2023/04/16 01:25:32;;;;;;;;;8.83;8.50;;;;;10.69;51.01;102247.28;2028036;28;2741948;-74
2023/04/16 01:26:46;;;;;;;;;8.33;8.33;;;;;10.69;51.17;102243.78;2030416;27;2744043;-74
2023/04/16 01:27:58;;;;;;;;;11.00;9.00;;;;;10.67;50.98;102240.28;2020192;28;3472131;-74
2023/04/16 01:29:11;;;;;;;;;8.50;7.67;;;;;10.67;51.02;102240.28;2039456;28;2741964;-74
2023/04/16 01:30:21;;;;;;;;;10.00;8.67;;;;;10.67;51.01;102243.78;2025545;27;2754464;-74
2023/04/16 01:31:32;;;;;;;;;7.67;7.33;;;;;10.67;51.12;102240.28;2045992;27;2737880;-74
2023/04/16 01:32:44;;;;;;;;;9.50;8.25;;;;;10.64;51.34;102238.53;2057280;27;2745441;-74
2023/04/16 01:33:57;;;;;;;;;7.67;7.00;;;;;10.65;51.42;102239.44;2045711;28;2735754;-74
2023/04/16 01:35:07;;;;;;;;;9.67;8.67;;;;;10.64;51.29;102235.06;2021573;27;2756570;-74
2023/04/16 01:36:18;;;;;;;;;9.33;8.00;;;;;10.64;51.29;102240.31;2045660;27;2746140;-74
2023/04/16 01:37:29;;;;;;;;;8.00;8.00;;;;;10.62;51.36;102239.47;2058754;27;2746560;-74
2023/04/16 01:38:40;;;;;;;;;10.00;8.67;;;;;10.61;51.56;102237.72;2002207;27;3482874;-74
2023/04/16 01:39:51;;;;;;;;;8.33;8.00;;;;;10.59;51.17;102237.75;2059316;27;2741960;-74
2023/04/16 01:41:01;;;;;;;;;12.00;8.67;;;;;10.57;51.49;102235.09;2010956;27;2758704;-74
2023/04/16 01:42:12;;;;;;;;;10.00;10.00;;;;;10.57;51.83;102237.75;2050275;27;3516924;-74
2023/04/16 01:43:24;;;;;;;;;13.00;11.00;;;;;10.56;51.60;102236.00;2038855;28;3515707;-74
2023/04/16 01:44:34;;;;;;;;;7.00;7.00;;;;;10.54;51.62;102235.13;2040549;27;1810679;-74
2023/04/16 01:45:46;;;;;;;;;8.67;7.67;;;;;10.53;51.60;102237.78;2036643;27;2746114;-74
2023/04/16 01:46:56;;;;;;;;;11.00;8.33;;;;;10.53;51.69;102238.66;2010362;27;2773265;-74
2023/04/16 01:48:08;;;;;;;;;9.00;8.67;;;;;10.52;51.80;102244.78;2051643;28;1827916;-74
2023/04/16 01:49:18;;;;;;;;;8.67;8.67;;;;;10.51;51.65;102237.81;1987644;28;3464815;-74
2023/04/16 01:50:30;;;;;;;;;8.67;8.67;;;;;10.49;52.07;102242.19;2031292;27;2743023;-74
2023/04/16 01:51:41;;;;;;;;;10.00;10.00;;;;;10.47;51.75;102242.16;2028403;27;2779491;-74
2023/04/16 01:52:53;;;;;;;;;7.40;7.40;;;;;10.49;51.82;102241.28;2051745;28;2737789;-74
2023/04/16 01:54:04;;;;;;;;;10.00;9.67;;;;;10.47;51.94;102243.91;1991626;28;3496080;-74
2023/04/16 01:55:15;;;;;;;;;10.00;9.00;;;;;10.44;51.79;102244.84;2052389;27;1831496;-74
2023/04/16 01:56:26;;;;;;;;;7.25;7.25;;;;;10.42;51.74;102251.00;2032136;27;2744485;-74
2023/04/16 01:57:37;;;;;;;;;10.67;10.33;;;;;10.41;52.00;102250.13;2030324;27;3501333;-74
2023/04/16 01:58:48;;;;;;;;;11.67;10.00;;;;;10.41;51.86;102249.25;2042821;27;3501304;-74
2023/04/16 01:59:59;;;;;;;;;13.00;10.33;;;;;10.40;52.03;102252.75;2042681;27;3517966;-74
2023/04/16 02:01:10;;;;;;;;;9.33;8.33;;;;;10.39;51.93;102245.75;2057585;27;2749212;-74
2023/04/16 02:02:26;;;;;;;;;8.33;8.33;;;;;10.39;52.06;102251.00;2029353;28;2739872;-74
2023/04/16 02:03:40;;;;;;;;;10.00;9.00;;;;;10.38;52.26;102246.63;2049515;28;2746628;-74
2023/04/16 02:04:55;;;;;;;;;9.17;8.50;;;;;10.36;52.05;102249.28;2035117;27;2744030;-74
2023/04/16 02:06:08;;;;;;;;;8.83;8.17;;;;;10.37;52.23;102247.53;2027910;28;2742993;-74
2023/04/16 02:07:19;;;;;;;;;9.00;9.00;;;;;10.35;52.18;102252.78;1998282;27;3462747;-74
2023/04/16 02:08:30;;;;;;;;;9.67;9.00;;;;;10.35;52.45;102256.28;2041027;28;2758673;-74
2023/04/16 02:09:41;;;;;;;;;10.00;9.00;;;;;10.34;52.55;102253.69;2036446;27;3480467;-74
2023/04/16 02:10:52;;;;;;;;;10.00;8.00;;;;;10.32;52.75;102245.78;2042352;27;2754478;-74
2023/04/16 02:12:03;;;;;;;;;9.33;9.00;;;;;10.31;52.39;102253.69;2059931;27;1830459;-74
2023/04/16 02:13:15;;;;;;;;;10.33;8.33;;;;;10.29;52.46;102248.47;2014656;28;3488813;-74
2023/04/16 02:14:25;;;;;;;;;11.67;11.00;;;;;10.28;52.70;102256.34;2029806;27;3509602;-74
2023/04/16 02:15:36;;;;;;;;;9.33;6.33;;;;;10.27;52.84;102262.50;2047332;27;2739840;-74
2023/04/16 02:16:47;;;;;;;;;9.33;9.33;;;;;10.24;52.90;102253.75;2042826;27;2758739;-74
2023/04/16 02:17:58;;;;;;;;;10.00;7.33;;;;;10.22;52.59;102259.91;2059196;27;2749271;-74
2023/04/16 02:19:11;;;;;;;;;12.50;7.67;;;;;10.19;52.79;102259.91;2019953;28;2765339;-74
2023/04/16 02:20:22;;;;;;;;;15.67;10.67;;;;;10.16;53.07;102266.06;1996884;27;3522184;-74
2023/04/16 02:21:33;;;;;;;;;10.00;8.33;;;;;10.15;52.84;102261.69;2034201;27;3477346;-74
2023/04/16 02:22:44;;;;;;;;;13.00;7.67;;;;;10.12;52.76;102259.09;2046323;27;2766970;-74
2023/04/16 02:23:54;;;;;;;;;11.33;10.00;;;;;10.13;52.92;102264.31;2040781;27;3508600;-74
2023/04/16 02:25:07;;;;;;;;;8.25;6.25;;;;;10.13;53.18;102264.31;2059559;27;2733622;-74
2023/04/16 02:26:18;;;;;;;;;11.50;9.75;;;;;10.13;53.22;102260.81;2033071;28;1841979;-74
2023/04/16 02:27:28;;;;;;;;;12.00;11.00;;;;;10.10;53.08;102261.72;2016299;28;3514866;-74
2023/04/16 02:28:40;;;;;;;;;8.00;7.00;;;;;10.11;53.17;102254.72;2057382;27;2746116;-74
2023/04/16 02:29:51;;;;;;;;;12.33;10.67;;;;;10.10;53.54;102261.72;2032482;27;2787848;-74
2023/04/16 02:31:02;;;;;;;;;12.67;9.33;;;;;10.11;53.42;102257.34;2046345;27;3480463;-74
2023/04/16 02:32:13;;;;;;;;;9.00;8.00;;;;;10.08;52.89;102260.84;2039950;28;2740962;-74
2023/04/16 02:33:25;;;;;;;;;8.67;7.67;;;;;10.06;53.28;102253.84;2044335;27;2744051;-74
2023/04/16 02:34:39;;;;;;;;;8.00;8.00;;;;;10.06;53.33;102265.25;2059845;27;2748173;-74
2023/04/16 02:35:49;;;;;;;;;11.00;9.00;;;;;10.06;53.11;102261.75;2048813;27;1844051;-74
2023/04/16 02:37:00;;;;;;;;;9.67;8.00;;;;;10.06;53.34;102259.13;2034014;27;2752354;-74
2023/04/16 02:38:13;;;;;;;;;8.83;7.83;;;;;10.04;53.57;102267.03;2035814;27;2747141;-74
2023/04/16 02:39:25;;;;;;;;;9.25;8.75;;;;;10.04;53.31;102274.91;2023590;27;1827391;-74
2023/04/16 02:40:35;;;;;;;;;10.67;9.00;;;;;10.04;53.48;102258.25;2034120;27;2764937;-74
2023/04/16 02:41:46;;;;;;;;;12.00;10.33;;;;;10.03;52.93;102265.25;2035038;28;3512748;-74
2023/04/16 02:42:58;;;;;;;;;10.25;9.50;;;;;10.02;53.63;102274.03;2056707;27;1833703;-74
2023/04/16 02:44:08;;;;;;;;;11.00;9.00;;;;;10.02;53.36;102266.16;2033588;27;3485645;-74
2023/04/16 02:45:20;;;;;;;;;11.00;11.00;;;;;10.02;53.04;102260.91;2052069;27;2787854;-74
2023/04/16 02:46:30;;;;;;;;;11.50;8.00;;;;;10.03;53.56;102273.13;2040174;27;2769007;-74
2023/04/16 02:47:41;;;;;;;;;8.00;7.33;;;;;10.00;53.71;102258.25;2042229;28;2733672;-74
2023/04/16 02:48:52;;;;;;;;;9.33;9.00;;;;;10.00;53.78;102267.94;2047092;27;2753412;-74
2023/04/16 02:50:03;;;;;;;;;12.00;10.67;;;;;10.00;53.78;102254.78;2001066;28;3504439;-74
2023/04/16 02:51:14;;;;;;;;;15.50;13.00;;;;;10.02;53.78;102268.78;2039606;27;2799233;-74
2023/04/16 02:52:25;;;;;;;;;20.00;13.50;;;;;10.01;54.04;102257.41;2051073;27;2832570;-74
2023/04/16 02:53:37;;;;;;;;;15.75;13.75;;;;;10.02;54.00;102259.13;2038536;27;1846181;-74
2023/04/16 02:54:47;;;;;;;;;13.00;11.00;;;;;10.03;54.20;102260.00;2031989;27;2786690;-74
2023/04/16 02:55:58;;;;;;;;;15.00;14.00;;;;;10.03;54.14;102267.88;2018411;28;2804431;-74
2023/04/16 02:57:09;;;;;;;;;13.00;12.00;;;;;10.04;54.86;102258.25;2035326;28;2796152;-74
2023/04/16 02:58:23;;;;;;;;;14.00;13.00;;;;;10.04;54.39;102260.88;2033328;28;2804461;-74
2023/04/16 02:59:33;;;;;;;;;14.50;13.50;;;;;10.04;54.45;102263.50;2002170;27;2785684;-74
2023/04/16 03:00:44;;;;;;;;;18.50;15.50;;;;;10.02;54.38;102269.63;2050734;27;2820046;-74
2023/04/16 03:01:55;;;;;;;;;14.00;14.00;;;;;10.01;54.23;102270.53;2022883;27;2811727;-74
2023/04/16 03:03:06;;;;;;;;;16.50;14.50;;;;;10.00;54.61;102271.41;2010073;28;2811726;-74
2023/04/16 03:04:18;;;;;;;;;14.60;14.00;;;;;10.00;54.70;102266.16;2019197;28;1824289;-74
2023/04/16 03:05:29;;;;;;;;;16.50;14.00;;;;;10.00;54.79;102275.81;2018003;27;2821087;-74
2023/04/16 03:06:40;;;;;;;;;10.50;9.00;;;;;9.99;54.72;102274.06;2027666;27;2766895;-74
2023/04/16 03:07:55;;;;;;;;;15.00;12.00;;;;;9.97;54.79;102273.19;2047748;27;2812751;-74
2023/04/16 03:09:05;;;;;;;;;14.00;14.00;;;;;9.97;54.99;102271.44;2009402;27;2803368;-74
2023/04/16 03:10:16;;;;;;;;;16.50;13.00;;;;;9.95;54.75;102272.34;2048302;27;2804509;-74
2023/04/16 03:11:28;;;;;;;;;14.25;14.00;;;;;9.94;54.77;102270.56;2034462;27;1854560;-74
2023/04/16 03:12:39;;;;;;;;;11.00;11.00;;;;;9.90;55.06;102267.09;2058609;27;1840972;-74
2023/04/16 03:13:51;;;;;;;;;12.50;11.75;;;;;9.87;55.03;102273.25;2016173;27;1844063;-74
2023/04/16 03:15:02;;;;;;;;;12.50;12.00;;;;;9.85;55.00;102264.47;2031917;27;2787724;-74
2023/04/16 03:16:12;;;;;;;;;14.00;12.00;;;;;9.82;55.22;102267.13;1999457;27;3528423;-74
2023/04/16 03:17:23;;;;;;;;;14.50;12.00;;;;;9.81;54.64;102269.75;2023905;27;2789366;-74
2023/04/16 03:18:34;;;;;;;;;13.50;12.00;;;;;9.78;54.94;102268.91;2046698;27;2785704;-74
2023/04/16 03:19:45;;;;;;;;;11.50;9.50;;;;;9.78;54.84;102270.63;2043045;27;2783995;-74
2023/04/16 03:20:56;;;;;;;;;14.50;12.00;;;;;9.77;55.00;102269.78;2050165;27;2784706;-74
2023/04/16 03:22:07;;;;;;;;;12.67;12.67;;;;;9.77;54.89;102274.16;2065216;27;1841963;-74
2023/04/16 03:23:18;;;;;;;;;10.50;10.00;;;;;9.75;54.98;102275.94;2001736;28;2787762;-74
2023/04/16 03:24:29;;;;;;;;;14.00;10.00;;;;;9.74;54.74;102280.31;2046316;28;1844122;-74
2023/04/16 03:25:42;;;;;;;;;12.33;10.00;;;;;9.72;55.18;102276.81;2018185;28;3520021;-74
2023/04/16 03:26:52;;;;;;;;;12.50;10.50;;;;;9.71;55.06;102276.81;2032486;27;2786718;-74
2023/04/16 03:28:04;;;;;;;;;10.33;9.00;;;;;9.71;55.18;102277.69;2024485;27;2771185;-74
2023/04/16 03:29:14;;;;;;;;;11.00;10.00;;;;;9.69;55.20;102276.81;2041107;27;2781525;-74
2023/04/16 03:30:25;;;;;;;;;11.00;8.33;;;;;9.69;55.37;102289.94;2056917;27;2770047;-74
2023/04/16 03:31:36;;;;;;;;;12.00;11.00;;;;;9.68;55.19;102280.31;1999870;28;3511717;-74
2023/04/16 03:32:47;;;;;;;;;13.00;10.50;;;;;9.67;55.46;102284.72;2017375;27;2789835;-74
2023/04/16 03:33:58;;;;;;;;;13.33;11.00;;;;;9.66;55.36;102279.44;2063499;27;1842032;-74
2023/04/16 03:35:09;;;;;;;;;11.00;11.00;;;;;9.68;55.48;102290.81;2008340;27;3511646;-74
2023/04/16 03:36:21;;;;;;;;;13.50;11.75;;;;;9.67;54.98;102279.47;2023434;27;1857081;-74
2023/04/16 03:37:32;;;;;;;;;12.50;10.00;;;;;9.67;55.10;102281.22;2031957;27;2786821;-74
2023/04/16 03:38:44;;;;;;;;;9.25;9.25;;;;;9.66;55.22;102282.06;2048376;27;1833631;-74
2023/04/16 03:39:55;;;;;;;;;11.50;9.50;;;;;9.65;55.25;102278.59;2029981;27;2779427;-74
2023/04/16 03:41:05;;;;;;;;;17.00;10.50;;;;;9.64;55.16;102284.72;2032231;27;2814889;-74
2023/04/16 03:42:17;;;;;;;;;12.25;9.75;;;;;9.63;55.31;102280.34;2064100;27;1844117;-74
2023/04/16 03:43:28;;;;;;;;;12.00;11.50;;;;;9.64;55.32;102274.22;2032061;27;2792979;-74
2023/04/16 03:44:39;;;;;;;;;12.00;10.50;;;;;9.63;55.84;102282.97;2024445;27;2781483;-74
2023/04/16 03:45:50;;;;;;;;;12.33;11.67;;;;;9.62;55.55;102275.97;2053196;27;1843992;-74
2023/04/16 03:47:01;;;;;;;;;14.25;10.50;;;;;9.61;55.08;102279.47;2035104;27;1840888;-74
2023/04/16 03:48:12;;;;;;;;;10.33;10.33;;;;;9.62;55.78;102277.72;2029988;27;3511817;-74
2023/04/16 03:49:23;;;;;;;;;11.33;10.33;;;;;9.63;55.24;102282.13;2043308;27;3511723;-74
2023/04/16 03:50:34;;;;;;;;;12.50;12.50;;;;;9.62;55.13;102286.47;2049507;27;2786769;-74
2023/04/16 03:51:45;;;;;;;;;10.50;10.00;;;;;9.62;55.52;102286.47;2041290;28;2781560;-74
2023/04/16 03:52:56;;;;;;;;;13.50;11.00;;;;;9.61;55.45;102281.22;2030197;27;2789835;-74
2023/04/16 03:54:07;;;;;;;;;12.00;9.67;;;;;9.59;55.42;102280.34;2048683;27;3500250;-74
2023/04/16 03:55:18;;;;;;;;;12.00;10.33;;;;;9.60;55.71;102285.63;2063930;27;1846155;-74
2023/04/16 03:56:28;;;;;;;;;14.00;9.00;;;;;9.59;55.71;102280.34;2009580;27;2774223;-74
2023/04/16 03:57:40;;;;;;;;;13.00;12.00;;;;;9.59;55.98;102288.22;2042631;27;2787763;-74
2023/04/16 03:58:51;;;;;;;;;12.75;12.75;;;;;9.57;56.06;102283.88;2040048;27;1841957;-74
2023/04/16 04:00:03;;;;;;;;;15.00;14.00;;;;;9.57;55.77;102286.50;2031218;27;2798542;-74
2023/04/16 04:01:13;;;;;;;;;13.00;12.33;;;;;9.56;56.02;102281.25;2025697;27;3520060;-74
2023/04/16 04:02:24;;;;;;;;;14.67;11.67;;;;;9.56;55.83;102294.38;2034933;28;3533591;-74
2023/04/16 04:03:35;;;;;;;;;13.25;12.25;;;;;9.55;55.72;102282.13;2051975;28;1825334;-74
2023/04/16 04:04:46;;;;;;;;;17.00;13.00;;;;;9.56;56.23;102291.75;1994369;27;2820077;-74
2023/04/16 04:05:57;;;;;;;;;13.50;10.00;;;;;9.57;56.10;102288.25;2024584;27;2792943;-74
2023/04/16 04:07:08;;;;;;;;;18.00;12.50;;;;;9.56;55.75;102287.38;2049868;27;2814849;-74
2023/04/16 04:08:20;;;;;;;;;13.50;11.50;;;;;9.57;55.95;102291.75;2065919;27;1835743;-74
2023/04/16 04:09:30;;;;;;;;;13.50;13.00;;;;;9.58;56.13;102289.97;2024745;27;2812746;-74
2023/04/16 04:10:41;;;;;;;;;14.00;13.00;;;;;9.57;56.17;102294.38;2025117;27;2816915;-74
2023/04/16 04:11:53;;;;;;;;;14.50;12.25;;;;;9.58;56.11;102295.22;2064281;27;1839909;-74
2023/04/16 04:13:05;;;;;;;;;11.25;10.25;;;;;9.57;56.06;102290.88;2046756;27;1848201;-74
2023/04/16 04:14:16;;;;;;;;;14.00;11.00;;;;;9.57;56.07;102301.38;2027450;27;2787823;-74
2023/04/16 04:15:29;;;;;;;;;15.17;12.83;;;;;9.59;56.08;102298.72;2065116;27;2786683;-74
2023/04/16 04:16:40;;;;;;;;;10.67;10.00;;;;;9.57;56.55;102304.00;2014249;27;3501291;-74
2023/04/16 04:17:50;;;;;;;;;13.33;12.33;;;;;9.56;56.66;102302.25;2036185;27;3514813;-74
2023/04/16 04:19:02;;;;;;;;;18.33;14.67;;;;;9.52;56.92;102297.88;2043096;27;2815958;-74
2023/04/16 04:20:13;;;;;;;;;13.50;12.00;;;;;9.50;56.91;102302.28;2023540;28;2797157;-74
2023/04/16 04:21:28;;;;;;;;;19.00;19.00;;;;;9.49;56.87;102306.66;2040866;27;3560687;-74
2023/04/16 04:22:39;;;;;;;;;17.00;15.00;;;;;9.48;57.14;102307.53;2032189;27;2825272;-74
2023/04/16 04:23:50;;;;;;;;;19.50;14.50;;;;;9.45;56.85;102305.78;2012328;27;2827298;-74
2023/04/16 04:25:01;;;;;;;;;15.25;15.00;;;;;9.44;57.15;102304.03;2034790;27;1830665;-74
2023/04/16 04:26:14;;;;;;;;;20.50;18.17;;;;;9.43;57.85;102312.78;2038711;27;1837807;-74
2023/04/16 04:27:25;;;;;;;;;18.00;16.00;;;;;9.41;58.09;102309.28;2007326;27;2823279;-74
2023/04/16 04:28:36;;;;;;;;;17.50;13.50;;;;;9.38;57.65;102304.06;2007187;28;2800279;-74
2023/04/16 04:29:47;;;;;;;;;19.67;16.67;;;;;9.36;57.55;102300.53;2038601;27;2824387;-74
2023/04/16 04:31:00;;;;;;;;;17.33;17.33;;;;;9.36;57.80;102311.03;2022448;28;3575244;-74
2023/04/16 04:32:10;;;;;;;;;19.00;14.00;;;;;9.35;57.52;102309.31;2019574;27;2820074;-74
2023/04/16 04:33:22;;;;;;;;;23.67;18.33;;;;;9.35;57.93;102311.94;2012467;28;3586674;-74
2023/04/16 04:34:34;;;;;;;;;25.33;20.67;;;;;9.34;58.07;102304.94;2042872;27;3581494;-74
2023/04/16 04:35:46;;;;;;;;;26.00;20.33;;;;;9.34;58.05;102304.94;2036857;28;3575240;-74
2023/04/16 04:36:58;;;;;;;;;26.33;22.33;;;;;9.32;57.95;102309.31;2041537;27;3589818;-74
2023/04/16 04:38:10;;;;;;;;;24.67;18.67;;;;;9.30;58.54;102303.19;2048534;27;3582527;-74
2023/04/16 04:39:22;;;;;;;;;20.33;19.33;;;;;9.29;58.56;102306.69;2046516;27;3586689;-74
2023/04/16 04:40:34;;;;;;;;;23.33;21.00;;;;;9.29;58.44;102310.19;2042749;27;3577323;-74
2023/04/16 04:41:46;;;;;;;;;25.67;21.00;;;;;9.27;58.63;102311.06;2043564;27;3573168;-74
2023/04/16 04:42:57;;;;;;;;;22.00;21.33;;;;;9.25;58.70;102308.47;2023466;28;3573144;-74
2023/04/16 04:44:09;;;;;;;;;27.67;24.33;;;;;9.23;58.84;102305.81;2033801;28;3570020;-74
2023/04/16 04:45:24;;;;;;;;;27.67;26.00;;;;;9.23;59.40;102307.59;2042422;27;3587728;-74
2023/04/16 04:46:35;;;;;;;;;26.00;22.33;;;;;9.22;58.92;102306.72;2032327;27;3564834;-74
2023/04/16 04:47:47;;;;;;;;;27.67;22.00;;;;;9.20;58.88;102308.47;2047555;27;3579422;-74
2023/04/16 04:48:59;;;;;;;;;27.67;22.67;;;;;9.20;58.93;102316.34;2039889;28;3586678;-73
2023/04/16 04:50:11;;;;;;;;;22.33;22.33;;;;;9.22;59.29;102316.34;2038711;27;3581496;-73
2023/04/16 04:51:23;;;;;;;;;24.00;21.00;;;;;9.20;59.29;102318.97;2047200;27;3568973;-74
2023/04/16 04:52:35;;;;;;;;;28.20;22.80;;;;;9.18;59.66;102318.09;2052323;27;3590165;-74
2023/04/16 04:53:46;;;;;;;;;26.00;23.00;;;;;9.17;59.69;102308.47;2045552;27;3570047;-74
2023/04/16 04:54:58;;;;;;;;;26.40;23.40;;;;;9.14;59.18;102315.47;2039957;28;3578329;-74
2023/04/16 04:56:12;;;;;;;;;27.43;23.29;;;;;9.11;59.18;102317.22;2049732;27;2849188;-74
2023/04/16 04:57:23;;;;;;;;;24.67;23.33;;;;;9.10;59.19;102319.84;2030102;27;3579433;-74
2023/04/16 04:58:35;;;;;;;;;26.60;23.60;;;;;9.09;59.16;102318.97;2051111;27;3575208;-74
2023/04/16 04:59:47;;;;;;;;;29.00;25.33;;;;;9.08;59.15;102321.59;2045555;27;3587810;-74
2023/04/16 05:00:59;;;;;;;;;26.00;23.20;;;;;9.07;59.23;102317.22;2042467;28;3578314;-74
2023/04/16 05:02:12;;;;;;;;;28.00;26.00;;;;;9.07;59.33;102318.09;2033114;27;3581518;-74
2023/04/16 05:03:23;;;;;;;;;32.67;26.67;;;;;9.08;59.85;102316.34;2032556;27;3601659;-74
2023/04/16 05:04:35;;;;;;;;;29.00;24.00;;;;;9.07;59.79;102318.09;2045249;27;3574596;-74
2023/04/16 05:05:47;;;;;;;;;27.20;24.40;;;;;9.05;59.45;102324.22;2053750;27;3578342;-74
2023/04/16 05:07:00;;;;;;;;;26.00;23.40;;;;;9.03;59.64;102323.34;2051590;27;3576269;-74
2023/04/16 05:08:11;;;;;;;;;32.00;26.00;;;;;8.99;60.13;102323.34;2031307;27;2842933;-74
2023/04/16 05:09:23;;;;;;;;;25.40;25.40;;;;;8.97;59.84;102319.84;2025719;27;3579354;-74
2023/04/16 05:10:35;;;;;;;;;27.00;23.33;;;;;8.97;59.57;102317.25;2039717;28;3578376;-74
2023/04/16 05:11:46;;;;;;;;;29.67;24.67;;;;;8.98;60.01;102324.25;2035848;27;3590865;-74
2023/04/16 05:12:58;;;;;;;;;37.33;26.00;;;;;8.99;60.33;102325.09;2016592;27;3601269;-74
2023/04/16 05:14:10;;;;;;;;;27.00;25.20;;;;;8.98;60.69;102320.75;2018429;27;3585063;-74
2023/04/16 05:15:22;;;;;;;;;28.00;24.00;;;;;8.98;60.22;102323.38;2025854;27;3575204;-74
2023/04/16 05:16:35;;;;;;;;;24.67;24.00;;;;;8.98;60.50;102331.22;2045986;27;3580455;-74
2023/04/16 05:17:46;;;;;;;;;27.50;26.50;;;;;8.97;60.52;102329.47;2029721;27;2850784;-74
2023/04/16 05:18:58;;;;;;;;;25.00;22.00;;;;;8.96;60.54;102328.59;2014374;28;3577730;-74
2023/04/16 05:20:10;;;;;;;;;28.00;24.67;;;;;8.98;60.14;102337.34;2041266;27;3584610;-74
2023/04/16 05:21:21;;;;;;;;;32.00;25.80;;;;;8.99;60.27;102332.97;2042339;28;3590840;-74
2023/04/16 05:22:33;;;;;;;;;30.67;24.00;;;;;8.97;60.44;102335.59;2017680;27;3599243;-74